Pilot Rock, Oregon
Current Conditions -  °F | °C
As of 10:53 AM on Saturday 25 Oct 2014 (Local Time) from KPDT Reporting Station
Haze Haze  
Wind Chill:   Ceiling: 200
Heat Index:   Visibility: 1mi
Dew Point:   Wind: 12mph
Humidity: 96%   Direction: 300°WNW
Pressure: 29.6"   Gusts: NA
Location:  45.48°N, 118.83°W
Report Text: KPDT 251753Z 30010KT 1SM BR OVC002 09/08 A2960 RMK AO2 SLP021 T00890083 10089 20078 55004
Loading
Personal Weather Stations






























Interactive Weather Map
Tropical Storm Tracking
New forecast layout! Learn more

10-Day Weather Forecast

Advertisements
Track Severe Weather on mobile